Αναφορές METAR

 

LGKZ - Kozani (civ/Army, Greece
Distance from station: ΝΔ 41km
Ενημερώθηκε: 25/07/2021 01:50

 Ανεμος από ΒΒΔ
Ανεμος: ΒΒΔ 9 km/h
Θερμοκρασία: 18°C
Σημείο Δρόσου: 10°C
Υγρασία: 60%
Βαρόμετρο: 1018 hPa
2021/07/24 22:50 LGKZ 242250Z AUTO 34005KT //// // ////// 18/10 Q1018 RE//
LGTS - Thessaloniki/Mik, Greece
Distance from station: Α 64km
Ενημερώθηκε: 25/07/2021 02:20
Αίθριος
Αίθριος
 Ανεμος από ΑΝΑ
Ανεμος: ΑΝΑ 9 km/h
Θερμοκρασία: 20°C
Σημείο Δρόσου: 17°C
Υγρασία: 83%
Βαρόμετρο: 1015 hPa
Περίληψη: Αίθριος
Visibility: greater than 10 km
2021/07/24 23:20 LGTS 242320Z 11005KT CAVOK 20/17 Q1015 NOSIG
 
LGIO - Ioannina, Greece
Distance from station: ΝΔ 149km
Ενημερώθηκε: 25/07/2021 02:20

 Ανεμος από varies
Ανεμος: varies 2 km/h
Θερμοκρασία: 17°C
Σημείο Δρόσου: 15°C
Υγρασία: 88%
Βαρόμετρο: 1016 hPa
2021/07/24 23:20 LGIO 242320Z AUTO VRB01KT //// // ////// 17/15 Q1016 RE//
LGBL - Nea Anchialos, Greece
Distance from station: ΝΝΑ 154km
Ενημερώθηκε: 25/07/2021 01:50
Few Clouds
Few Clouds
 Ανεμος από Δ
Ανεμος: Δ 9 km/h
Θερμοκρασία: 20°C
Σημείο Δρόσου: 14°C
Υγρασία: 69%
Βαρόμετρο: 1014 hPa
Clouds: Few Clouds
Visibility: 10 km
Cloud details: Few Clouds 2438 m
2021/07/24 22:50 LGBL 242250Z 28005KT 9999 FEW080 20/14 Q1014
 
LGSK - Skiathos Island, Greece
Distance from station: ΝΑ 185km
Ενημερώθηκε: 24/07/2021 19:50
NOT Current
Few Clouds
Few Clouds
 Ανεμος από ΒΒΑ
Ανεμος: ΒΒΑ 7 km/h
Θερμοκρασία: 27°C
Heat Index: 28°C
Σημείο Δρόσου: 17°C
Υγρασία: 54%
Βαρόμετρο: 1012 hPa
Clouds: Few Clouds
Visibility: 10 km
Cloud details: Few Clouds 610 m
2021/07/24 16:50 LGSK 241650Z 02004KT 9999 FEW020 27/17 Q1012
LGKV - Kavala/Chrisoupo, Greece
Distance from station: ΑΒΑ 208km
Ενημερώθηκε: 24/07/2021 23:20
NOT Current
Few Clouds
Few Clouds
 Ανεμος από varies
Ανεμος: varies 4 km/h
Θερμοκρασία: 24°C
Σημείο Δρόσου: 18°C
Υγρασία: 69%
Βαρόμετρο: 1013 hPa
Clouds: Few Clouds
Visibility: 10 km
Cloud details: Few Clouds 914 m
2021/07/24 20:20 LGKV 242020Z VRB02KT 9999 FEW030 24/18 Q1013
 
LGPZ - Preveza/Aktion, Greece
Distance from station: ΝΔ 217km
Ενημερώθηκε: 25/07/2021 01:50
Few Clouds
Few Clouds
 Ανεμος από calm
Ανεμος: Απνοια
Θερμοκρασία: 21°C
Σημείο Δρόσου: 20°C
Υγρασία: 94%
Βαρόμετρο: 1013 hPa
Clouds: Few Clouds
Visibility: 10 km
Cloud details: Few Clouds 610 m
2021/07/24 22:50 LGPZ 242250Z 00000KT 9999 FEW020 21/20 Q1013
LGKR - Ioannis Kapodist, Greece
Distance from station: ΔΝΔ 219km
Ενημερώθηκε: 25/07/2021 02:20
Αίθριος
Αίθριος
 Ανεμος από calm
Ανεμος: Απνοια
Θερμοκρασία: 23°C
Σημείο Δρόσου: 18°C
Υγρασία: 74%
Βαρόμετρο: 1012 hPa
Περίληψη: Αίθριος
Visibility: greater than 10 km
2021/07/24 23:20 LGKR 242320Z 00000KT CAVOK 23/18 Q1012 NOSIG
 
LGSY - Skiros, Greece
Distance from station: ΝΑ 261km
Ενημερώθηκε: 24/07/2021 20:50
NOT Current
Αίθριος
Αίθριος
 Ανεμος από ΒΒΔ
Ανεμος: ΒΒΔ 24 km/h
Θερμοκρασία: 25°C
Σημείο Δρόσου: 21°C
Υγρασία: 79%
Βαρόμετρο: 1012 hPa
Περίληψη: Αίθριος
Visibility: greater than 10 km
2021/07/24 17:50 LGSY 241750Z 33013KT CAVOK 25/21 Q1012 RMK FEW080 BLU
LGLM - Limnos Island Ar, Greece
Distance from station: ΑΝΑ 266km
Ενημερώθηκε: 25/07/2021 01:50
Αίθριος
Αίθριος
 Ανεμος από ΒΒΑ
Ανεμος: ΒΒΑ 17 km/h
Θερμοκρασία: 23°C
Σημείο Δρόσου: 14°C
Υγρασία: 57%
Βαρόμετρο: 1013 hPa
Περίληψη: Αίθριος
Visibility: greater than 10 km
2021/07/24 22:50 LGLM 242250Z 03009KT CAVOK 23/14 Q1013
 
LGRX - Araxos (civ/Afb), Greece
Distance from station: ΝΝΔ 271km
Ενημερώθηκε: 25/07/2021 01:50
Αίθριος
Αίθριος
 Ανεμος από calm
Ανεμος: Απνοια
Θερμοκρασία: 26°C
Σημείο Δρόσου: 16°C
Υγρασία: 54%
Βαρόμετρο: 1013 hPa
Περίληψη: Αίθριος
Visibility: greater than 10 km
2021/07/24 22:50 LGRX 242250Z 00000KT CAVOK 26/16 Q1013
LGEL - Elefsis (hel-Afb, Greece
Distance from station: ΝΝΑ 297km
Ενημερώθηκε: 25/07/2021 02:20

 Ανεμος από ΒΔ
Ανεμος: ΒΔ 11 km/h
Θερμοκρασία: 25°C
Σημείο Δρόσου: 11°C
Υγρασία: 42%
Βαρόμετρο: 1012 hPa
2021/07/24 23:20 LGEL 242320Z AUTO 32006KT 270V010 //// // ////// 25/11 Q1012 RE//
 
LGAD - Andravida (civ/A, Greece
Distance from station: ΝΝΔ 301km
Ενημερώθηκε: 25/07/2021 02:20

 Ανεμος από varies
Ανεμος: varies 4 km/h
Θερμοκρασία: 20°C
Σημείο Δρόσου: 17°C
Υγρασία: 83%
Βαρόμετρο: 1013 hPa
2021/07/24 23:20 LGAD 242320Z AUTO VRB02KT //// // ////// 20/17 Q1013 RE//
LGKF - Kefallinia, Greece
Distance from station: ΝΝΔ 305km
Ενημερώθηκε: 24/07/2021 22:50
NOT Current
Αίθριος
Αίθριος
 Ανεμος από calm
Ανεμος: Απνοια
Θερμοκρασία: 25°C
Σημείο Δρόσου: 16°C
Υγρασία: 57%
Βαρόμετρο: 1012 hPa
Περίληψη: Αίθριος
Visibility: greater than 10 km
2021/07/24 19:50 LGKF 241950Z 00000KT CAVOK 25/16 Q1012